sensor_id;sensor_type;location;lat;lon;timestamp;pressure;altitude;pressure_sealevel;temperature;humidity
33625;BME280;19962;47.820;1.930;2023-11-19T00:00:28;100673.81;;;16.15;100.00
33625;BME280;19962;47.820;1.930;2023-11-19T00:02:54;100661.63;;;16.16;100.00
33625;BME280;19962;47.820;1.930;2023-11-19T00:05:20;100662.75;;;16.15;100.00
33625;BME280;19962;47.820;1.930;2023-11-19T00:07:46;100658.88;;;16.16;100.00
33625;BME280;19962;47.820;1.930;2023-11-19T00:10:13;100654.19;;;16.16;100.00
33625;BME280;19962;47.820;1.930;2023-11-19T00:12:42;100638.66;;;16.15;100.00
33625;BME280;19962;47.820;1.930;2023-11-19T00:15:10;100648.63;;;16.16;100.00
33625;BME280;19962;47.820;1.930;2023-11-19T00:17:39;100648.38;;;16.18;100.00
33625;BME280;19962;47.820;1.930;2023-11-19T00:20:08;100653.66;;;16.19;100.00
33625;BME280;19962;47.820;1.930;2023-11-19T00:22:34;100662.22;;;16.18;100.00
33625;BME280;19962;47.820;1.930;2023-11-19T00:25:00;100660.81;;;16.15;100.00
33625;BME280;19962;47.820;1.930;2023-11-19T00:27:26;100653.31;;;16.16;100.00
33625;BME280;19962;47.820;1.930;2023-11-19T00:29:52;100645.88;;;16.16;100.00
33625;BME280;19962;47.820;1.930;2023-11-19T00:32:18;100633.69;;;16.17;100.00
33625;BME280;19962;47.820;1.930;2023-11-19T00:34:45;100643.06;;;16.11;100.00
33625;BME280;19962;47.820;1.930;2023-11-19T00:37:11;100641.69;;;16.14;100.00
33625;BME280;19962;47.820;1.930;2023-11-19T00:39:37;100641.16;;;16.17;100.00
33625;BME280;19962;47.820;1.930;2023-11-19T00:42:04;100644.50;;;16.19;100.00
33625;BME280;19962;47.820;1.930;2023-11-19T00:44:31;100629.56;;;16.20;100.00
33625;BME280;19962;47.820;1.930;2023-11-19T00:46:57;100625.69;;;16.21;100.00
33625;BME280;19962;47.820;1.930;2023-11-19T00:49:23;100631.22;;;16.21;100.00
33625;BME280;19962;47.820;1.930;2023-11-19T00:51:49;100645.06;;;16.21;100.00
33625;BME280;19962;47.820;1.930;2023-11-19T00:54:15;100644.25;;;16.20;100.00
33625;BME280;19962;47.820;1.930;2023-11-19T00:56:41;100637.84;;;16.20;100.00
33625;BME280;19962;47.820;1.930;2023-11-19T00:59:07;100651.69;;;16.20;100.00
33625;BME280;19962;47.820;1.930;2023-11-19T01:01:33;100649.78;;;16.20;100.00
33625;BME280;19962;47.820;1.930;2023-11-19T01:04:00;100658.91;;;16.21;100.00
33625;BME280;19962;47.820;1.930;2023-11-19T01:06:30;100646.16;;;16.20;100.00
33625;BME280;19962;47.820;1.930;2023-11-19T01:08:56;100659.75;;;16.21;100.00
33625;BME280;19962;47.820;1.930;2023-11-19T01:11:26;100663.38;;;16.22;100.00
33625;BME280;19962;47.820;1.930;2023-11-19T01:13:52;100659.75;;;16.21;100.00
33625;BME280;19962;47.820;1.930;2023-11-19T01:16:19;100659.50;;;16.23;100.00
33625;BME280;19962;47.820;1.930;2023-11-19T01:18:49;100654.22;;;16.21;100.00
33625;BME280;19962;47.820;1.930;2023-11-19T01:21:15;100655.06;;;16.22;100.00
33625;BME280;19962;47.820;1.930;2023-11-19T01:23:42;100669.97;;;16.21;100.00
33625;BME280;19962;47.820;1.930;2023-11-19T01:26:12;100681.03;;;16.21;100.00
33625;BME280;19962;47.820;1.930;2023-11-19T01:28:39;100668.91;;;16.22;100.00
33625;BME280;19962;47.820;1.930;2023-11-19T01:31:06;100666.66;;;16.19;100.00
33625;BME280;19962;47.820;1.930;2023-11-19T01:33:37;100669.97;;;16.21;100.00
33625;BME280;19962;47.820;1.930;2023-11-19T01:36:03;100671.66;;;16.22;100.00
33625;BME280;19962;47.820;1.930;2023-11-19T01:38:30;100671.13;;;16.25;100.00
33625;BME280;19962;47.820;1.930;2023-11-19T01:40:59;100673.09;;;16.29;100.00
33625;BME280;19962;47.820;1.930;2023-11-19T01:43:36;100683.06;;;16.30;100.00
33625;BME280;19962;47.820;1.930;2023-11-19T01:46:04;100662.03;;;16.29;100.00
33625;BME280;19962;47.820;1.930;2023-11-19T01:48:34;100672.25;;;16.29;100.00
33625;BME280;19962;47.820;1.930;2023-11-19T01:51:03;100667.56;;;16.29;100.00
33625;BME280;19962;47.820;1.930;2023-11-19T01:53:30;100672.25;;;16.29;100.00
33625;BME280;19962;47.820;1.930;2023-11-19T01:55:57;100678.38;;;16.31;100.00
33625;BME280;19962;47.820;1.930;2023-11-19T01:58:24;100683.63;;;16.32;100.00
33625;BME280;19962;47.820;1.930;2023-11-19T02:00:50;100682.81;;;16.32;100.00
33625;BME280;19962;47.820;1.930;2023-11-19T02:03:17;100678.69;;;16.34;100.00
33625;BME280;19962;47.820;1.930;2023-11-19T02:05:43;100665.69;;;16.35;100.00
33625;BME280;19962;47.820;1.930;2023-11-19T02:08:09;100681.44;;;16.34;100.00
33625;BME280;19962;47.820;1.930;2023-11-19T02:10:35;100681.44;;;16.34;100.00
33625;BME280;19962;47.820;1.930;2023-11-19T02:13:02;100675.06;;;16.34;100.00
33625;BME280;19962;47.820;1.930;2023-11-19T02:15:28;100666.22;;;16.32;100.00
33625;BME280;19962;47.820;1.930;2023-11-19T02:17:54;100661.47;;;16.32;100.00
33625;BME280;19962;47.820;1.930;2023-11-19T02:20:21;100660.97;;;16.35;100.00
33625;BME280;19962;47.820;1.930;2023-11-19T02:22:47;100660.16;;;16.35;100.00
33625;BME280;19962;47.820;1.930;2023-11-19T02:25:28;100656.28;;;16.36;100.00
33625;BME280;19962;47.820;1.930;2023-11-19T02:28:01;100661.81;;;16.36;100.00
33625;BME280;19962;47.820;1.930;2023-11-19T02:30:27;100655.69;;;16.34;100.00
33625;BME280;19962;47.820;1.930;2023-11-19T02:33:00;100647.94;;;16.31;100.00
33625;BME280;19962;47.820;1.930;2023-11-19T02:35:31;100665.34;;;16.31;100.00
33625;BME280;19962;47.820;1.930;2023-11-19T02:37:58;100656.25;;;16.31;100.00
33625;BME280;19962;47.820;1.930;2023-11-19T02:40:29;100654.53;;;16.30;100.00
33625;BME280;19962;47.820;1.930;2023-11-19T02:42:55;100654.28;;;16.31;100.00
33625;BME280;19962;47.820;1.930;2023-11-19T02:45:23;100665.94;;;16.33;100.00
33625;BME280;19962;47.820;1.930;2023-11-19T02:47:51;100664.84;;;16.34;100.00
33625;BME280;19962;47.820;1.930;2023-11-19T02:50:20;100664.00;;;16.34;100.00
33625;BME280;19962;47.820;1.930;2023-11-19T02:52:56;100663.97;;;16.29;100.00
33625;BME280;19962;47.820;1.930;2023-11-19T02:55:23;100670.34;;;16.29;100.00
33625;BME280;19962;47.820;1.930;2023-11-19T02:57:50;100660.66;;;16.32;100.00
33625;BME280;19962;47.820;1.930;2023-11-19T03:00:21;100660.41;;;16.33;100.00
33625;BME280;19962;47.820;1.930;2023-11-19T03:02:54;100667.88;;;16.33;100.00
33625;BME280;19962;47.820;1.930;2023-11-19T03:05:31;100674.25;;;16.33;100.00
33625;BME280;19962;47.820;1.930;2023-11-19T03:07:57;100658.19;;;16.35;100.00
33625;BME280;19962;47.820;1.930;2023-11-19T03:10:23;100659.31;;;16.34;100.00
33625;BME280;19962;47.820;1.930;2023-11-19T03:12:50;100659.84;;;16.36;100.00
33625;BME280;19962;47.820;1.930;2023-11-19T03:15:16;100664.59;;;16.36;100.00
33625;BME280;19962;47.820;1.930;2023-11-19T03:17:42;100658.78;;;16.37;100.00
33625;BME280;19962;47.820;1.930;2023-11-19T03:20:10;100662.63;;;16.36;100.00
33625;BME280;19962;47.820;1.930;2023-11-19T03:22:41;100661.56;;;16.37;100.00
33625;BME280;19962;47.820;1.930;2023-11-19T03:25:10;100657.69;;;16.38;100.00
33625;BME280;19962;47.820;1.930;2023-11-19T03:27:37;100658.50;;;16.39;100.00
33625;BME280;19962;47.820;1.930;2023-11-19T03:30:08;100638.28;;;16.38;100.00
33625;BME280;19962;47.820;1.930;2023-11-19T03:32:35;100646.38;;;16.40;100.00
33625;BME280;19962;47.820;1.930;2023-11-19T03:35:02;100643.31;;;16.41;100.00
33625;BME280;19962;47.820;1.930;2023-11-19T03:37:30;100646.41;;;16.45;100.00
33625;BME280;19962;47.820;1.930;2023-11-19T03:39:58;100653.59;;;16.46;100.00
33625;BME280;19962;47.820;1.930;2023-11-19T03:42:26;100636.72;;;16.47;100.00
33625;BME280;19962;47.820;1.930;2023-11-19T03:44:53;100638.91;;;16.45;100.00
33625;BME280;19962;47.820;1.930;2023-11-19T03:47:20;100647.81;;;16.47;100.00
33625;BME280;19962;47.820;1.930;2023-11-19T03:49:52;100638.09;;;16.45;100.00
33625;BME280;19962;47.820;1.930;2023-11-19T03:52:19;100635.88;;;16.47;100.00
33625;BME280;19962;47.820;1.930;2023-11-19T03:54:45;100633.09;;;16.47;100.00
33625;BME280;19962;47.820;1.930;2023-11-19T03:57:12;100639.47;;;16.42;100.00
33625;BME280;19962;47.820;1.930;2023-11-19T03:59:39;100629.75;;;16.40;100.00
33625;BME280;19962;47.820;1.930;2023-11-19T04:02:05;100635.28;;;16.40;100.00
33625;BME280;19962;47.820;1.930;2023-11-19T04:04:32;100632.53;;;16.40;100.00
33625;BME280;19962;47.820;1.930;2023-11-19T04:07:00;100638.81;;;16.35;100.00
33625;BME280;19962;47.820;1.930;2023-11-19T04:09:27;100627.72;;;16.30;100.00
33625;BME280;19962;47.820;1.930;2023-11-19T04:11:53;100631.84;;;16.28;100.00
33625;BME280;19962;47.820;1.930;2023-11-19T04:14:19;100631.53;;;16.24;100.00
33625;BME280;19962;47.820;1.930;2023-11-19T04:16:45;100630.19;;;16.27;100.00
33625;BME280;19962;47.820;1.930;2023-11-19T04:19:11;100635.38;;;16.23;100.00
33625;BME280;19962;47.820;1.930;2023-11-19T04:21:40;100631.81;;;16.23;100.00
33625;BME280;19962;47.820;1.930;2023-11-19T04:24:11;100634.53;;;16.18;100.00
33625;BME280;19962;47.820;1.930;2023-11-19T04:26:45;100633.94;;;16.16;100.00
33625;BME280;19962;47.820;1.930;2023-11-19T04:29:16;100632.59;;;16.18;100.00
33625;BME280;19962;47.820;1.930;2023-11-19T04:31:45;100633.72;;;16.22;100.00
33625;BME280;19962;47.820;1.930;2023-11-19T04:34:12;100640.16;;;16.28;100.00
33625;BME280;19962;47.820;1.930;2023-11-19T04:36:38;100649.59;;;16.32;100.00
33625;BME280;19962;47.820;1.930;2023-11-19T04:39:05;100643.78;;;16.33;100.00
33625;BME280;19962;47.820;1.930;2023-11-19T04:41:35;100643.53;;;16.35;100.00
33625;BME280;19962;47.820;1.930;2023-11-19T04:44:03;100644.06;;;16.32;100.00
33625;BME280;19962;47.820;1.930;2023-11-19T04:46:29;100648.19;;;16.29;100.00
33625;BME280;19962;47.820;1.930;2023-11-19T04:48:55;100646.81;;;16.32;100.00
33625;BME280;19962;47.820;1.930;2023-11-19T04:51:21;100641.28;;;16.32;100.00
33625;BME280;19962;47.820;1.930;2023-11-19T04:53:48;100634.66;;;16.33;100.00
33625;BME280;19962;47.820;1.930;2023-11-19T04:56:14;100638.25;;;16.33;100.00
33625;BME280;19962;47.820;1.930;2023-11-19T04:58:41;100637.16;;;16.34;100.00
33625;BME280;19962;47.820;1.930;2023-11-19T05:01:14;100642.41;;;16.31;100.00
33625;BME280;19962;47.820;1.930;2023-11-19T05:03:43;100636.56;;;16.32;100.00
33625;BME280;19962;47.820;1.930;2023-11-19T05:06:09;100650.72;;;16.36;100.00
33625;BME280;19962;47.820;1.930;2023-11-19T05:08:36;100635.78;;;16.37;100.00
33625;BME280;19962;47.820;1.930;2023-11-19T05:11:03;100638.81;;;16.35;100.00
33625;BME280;19962;47.820;1.930;2023-11-19T05:13:29;100639.66;;;16.36;100.00
33625;BME280;19962;47.820;1.930;2023-11-19T05:15:55;100639.91;;;16.34;100.00
33625;BME280;19962;47.820;1.930;2023-11-19T05:18:21;100640.19;;;16.33;100.00
33625;BME280;19962;47.820;1.930;2023-11-19T05:20:47;100631.00;;;16.27;100.00
33625;BME280;19962;47.820;1.930;2023-11-19T05:23:13;100644.78;;;16.22;100.00
33625;BME280;19962;47.820;1.930;2023-11-19T05:25:40;100625.13;;;16.19;100.00
33625;BME280;19962;47.820;1.930;2023-11-19T05:28:06;100622.88;;;16.16;100.00
33625;BME280;19962;47.820;1.930;2023-11-19T05:30:32;100624.78;;;16.10;100.00
33625;BME280;19962;47.820;1.930;2023-11-19T05:32:58;100625.59;;;16.11;100.00
33625;BME280;19962;47.820;1.930;2023-11-19T05:35:24;100633.34;;;16.09;100.00
33625;BME280;19962;47.820;1.930;2023-11-19T05:37:50;100630.63;;;16.14;100.00
33625;BME280;19962;47.820;1.930;2023-11-19T05:40:16;100630.41;;;16.20;100.00
33625;BME280;19962;47.820;1.930;2023-11-19T05:42:43;100621.84;;;16.22;100.00
33625;BME280;19962;47.820;1.930;2023-11-19T05:45:11;100624.31;;;16.23;100.00
33625;BME280;19962;47.820;1.930;2023-11-19T05:47:37;100622.09;;;16.20;100.00
33625;BME280;19962;47.820;1.930;2023-11-19T05:50:04;100633.44;;;16.19;100.00
33625;BME280;19962;47.820;1.930;2023-11-19T05:52:31;100634.53;;;16.18;100.00
33625;BME280;19962;47.820;1.930;2023-11-19T05:55:00;100626.50;;;16.16;100.00
33625;BME280;19962;47.820;1.930;2023-11-19T05:57:30;100628.97;;;16.13;100.00
33625;BME280;19962;47.820;1.930;2023-11-19T05:59:57;100635.56;;;16.12;100.00
33625;BME280;19962;47.820;1.930;2023-11-19T06:02:24;100646.09;;;16.10;100.00
33625;BME280;19962;47.820;1.930;2023-11-19T06:04:50;100643.84;;;16.07;100.00
33625;BME280;19962;47.820;1.930;2023-11-19T06:07:16;100652.09;;;16.02;100.00
33625;BME280;19962;47.820;1.930;2023-11-19T06:09:42;100646.31;;;16.03;100.00
33625;BME280;19962;47.820;1.930;2023-11-19T06:12:09;100645.16;;;15.99;100.00
33625;BME280;19962;47.820;1.930;2023-11-19T06:14:35;100647.09;;;15.99;100.00
33625;BME280;19962;47.820;1.930;2023-11-19T06:17:01;100647.94;;;15.99;100.00
33625;BME280;19962;47.820;1.930;2023-11-19T06:19:27;100656.53;;;16.03;100.00
33625;BME280;19962;47.820;1.930;2023-11-19T06:21:54;100655.50;;;16.09;100.00
33625;BME280;19962;47.820;1.930;2023-11-19T06:24:20;100657.16;;;16.10;100.00
33625;BME280;19962;47.820;1.930;2023-11-19T06:26:46;100663.00;;;16.13;100.00
33625;BME280;19962;47.820;1.930;2023-11-19T06:29:12;100654.41;;;16.10;100.00
33625;BME280;19962;47.820;1.930;2023-11-19T06:31:41;100650.78;;;16.09;100.00
33625;BME280;19962;47.820;1.930;2023-11-19T06:34:07;100647.44;;;16.07;100.00
33625;BME280;19962;47.820;1.930;2023-11-19T06:36:33;100657.72;;;16.12;100.00
33625;BME280;19962;47.820;1.930;2023-11-19T06:38:59;100654.66;;;16.08;100.00
33625;BME280;19962;47.820;1.930;2023-11-19T06:41:26;100656.56;;;16.08;100.00
33625;BME280;19962;47.820;1.930;2023-11-19T06:43:52;100665.41;;;16.05;100.00
33625;BME280;19962;47.820;1.930;2023-11-19T06:46:18;100656.53;;;16.03;100.00
33625;BME280;19962;47.820;1.930;2023-11-19T06:48:45;100666.47;;;15.99;100.00
33625;BME280;19962;47.820;1.930;2023-11-19T06:51:12;100662.88;;;15.98;100.00
33625;BME280;19962;47.820;1.930;2023-11-19T06:53:38;100663.13;;;15.97;100.00
33625;BME280;19962;47.820;1.930;2023-11-19T06:56:21;100660.88;;;15.94;100.00
33625;BME280;19962;47.820;1.930;2023-11-19T06:58:47;100661.13;;;15.92;100.00
33625;BME280;19962;47.820;1.930;2023-11-19T07:01:17;100667.50;;;15.93;100.00
33625;BME280;19962;47.820;1.930;2023-11-19T07:03:45;100658.06;;;15.89;100.00
33625;BME280;19962;47.820;1.930;2023-11-19T07:06:12;100666.97;;;15.91;100.00
33625;BME280;19962;47.820;1.930;2023-11-19T07:08:43;100664.97;;;15.86;100.00
33625;BME280;19962;47.820;1.930;2023-11-19T07:11:13;100671.84;;;15.84;100.00
33625;BME280;19962;47.820;1.930;2023-11-19T07:13:43;100674.63;;;15.84;100.00
33625;BME280;19962;47.820;1.930;2023-11-19T07:16:09;100675.78;;;15.88;100.00
33625;BME280;19962;47.820;1.930;2023-11-19T07:18:38;100671.59;;;15.85;100.00
33625;BME280;19962;47.820;1.930;2023-11-19T07:21:05;100675.13;;;15.81;100.00
33625;BME280;19962;47.820;1.930;2023-11-19T07:23:31;100675.97;;;15.81;100.00
33625;BME280;19962;47.820;1.930;2023-11-19T07:26:00;100671.28;;;15.82;100.00
33625;BME280;19962;47.820;1.930;2023-11-19T07:28:26;100672.97;;;15.83;100.00
33625;BME280;19962;47.820;1.930;2023-11-19T07:30:54;100680.66;;;15.81;100.00
33625;BME280;19962;47.820;1.930;2023-11-19T07:33:22;100683.44;;;15.81;100.00
33625;BME280;19962;47.820;1.930;2023-11-19T07:35:48;100680.94;;;15.79;100.00
33625;BME280;19962;47.820;1.930;2023-11-19T07:38:14;100685.63;;;15.79;100.00
33625;BME280;19962;47.820;1.930;2023-11-19T07:40:40;100687.81;;;15.77;100.00
33625;BME280;19962;47.820;1.930;2023-11-19T07:43:06;100686.19;;;15.81;100.00
33625;BME280;19962;47.820;1.930;2023-11-19T07:45:33;100684.03;;;15.83;100.00
33625;BME280;19962;47.820;1.930;2023-11-19T07:48:00;100690.38;;;15.83;100.00
33625;BME280;19962;47.820;1.930;2023-11-19T07:50:27;100695.41;;;15.86;100.00
33625;BME280;19962;47.820;1.930;2023-11-19T07:52:53;100696.25;;;15.87;100.00
33625;BME280;19962;47.820;1.930;2023-11-19T07:55:19;100703.94;;;15.85;100.00
33625;BME280;19962;47.820;1.930;2023-11-19T07:57:45;100711.09;;;15.81;100.00
33625;BME280;19962;47.820;1.930;2023-11-19T08:00:12;100711.69;;;15.83;100.00
33625;BME280;19962;47.820;1.930;2023-11-19T08:02:39;100723.56;;;15.83;100.00
33625;BME280;19962;47.820;1.930;2023-11-19T08:05:05;100722.25;;;15.86;100.00
33625;BME280;19962;47.820;1.930;2023-11-19T08:07:31;100726.97;;;15.90;100.00
33625;BME280;19962;47.820;1.930;2023-11-19T08:09:57;100724.53;;;15.94;100.00
33625;BME280;19962;47.820;1.930;2023-11-19T08:12:23;100738.59;;;15.92;100.00
33625;BME280;19962;47.820;1.930;2023-11-19T08:14:49;100743.94;;;15.99;100.00
33625;BME280;19962;47.820;1.930;2023-11-19T08:17:15;100733.00;;;16.09;100.00
33625;BME280;19962;47.820;1.930;2023-11-19T08:19:42;100727.13;;;16.05;100.00
33625;BME280;19962;47.820;1.930;2023-11-19T08:22:08;100736.00;;;16.07;100.00
33625;BME280;19962;47.820;1.930;2023-11-19T08:24:35;100744.56;;;16.06;100.00
33625;BME280;19962;47.820;1.930;2023-11-19T08:27:01;100742.31;;;16.03;100.00
33625;BME280;19962;47.820;1.930;2023-11-19T08:29:27;100751.22;;;16.05;100.00
33625;BME280;19962;47.820;1.930;2023-11-19T08:31:54;100747.91;;;16.08;100.00
33625;BME280;19962;47.820;1.930;2023-11-19T08:34:20;100746.25;;;16.07;100.00
33625;BME280;19962;47.820;1.930;2023-11-19T08:36:46;100750.13;;;16.06;100.00
33625;BME280;19962;47.820;1.930;2023-11-19T08:39:15;100745.72;;;16.10;100.00
33625;BME280;19962;47.820;1.930;2023-11-19T08:41:42;100740.78;;;16.17;100.00
33625;BME280;19962;47.820;1.930;2023-11-19T08:44:09;100749.66;;;16.14;100.00
33625;BME280;19962;47.820;1.930;2023-11-19T08:46:35;100742.75;;;16.16;100.00
33625;BME280;19962;47.820;1.930;2023-11-19T08:49:01;100752.72;;;16.17;100.00
33625;BME280;19962;47.820;1.930;2023-11-19T08:51:27;100756.88;;;16.20;100.00
33625;BME280;19962;47.820;1.930;2023-11-19T08:53:54;100753.59;;;16.23;100.00
33625;BME280;19962;47.820;1.930;2023-11-19T08:56:20;100766.91;;;16.26;100.00
33625;BME280;19962;47.820;1.930;2023-11-19T08:58:46;100784.09;;;16.28;100.00
33625;BME280;19962;47.820;1.930;2023-11-19T09:01:12;100783.50;;;16.26;100.00
33625;BME280;19962;47.820;1.930;2023-11-19T09:03:38;100782.41;;;16.22;100.00
33625;BME280;19962;47.820;1.930;2023-11-19T09:06:04;100777.38;;;16.19;100.00
33625;BME280;19962;47.820;1.930;2023-11-19T09:08:30;100774.59;;;16.19;100.00
33625;BME280;19962;47.820;1.930;2023-11-19T09:10:56;100774.25;;;16.10;100.00
33625;BME280;19962;47.820;1.930;2023-11-19T09:13:23;100767.91;;;16.15;100.00
33625;BME280;19962;47.820;1.930;2023-11-19T09:15:49;100776.28;;;16.20;100.00
33625;BME280;19962;47.820;1.930;2023-11-19T09:18:15;100772.34;;;16.16;100.00
33625;BME280;19962;47.820;1.930;2023-11-19T09:20:41;100777.06;;;16.15;100.00
33625;BME280;19962;47.820;1.930;2023-11-19T09:23:07;100772.69;;;16.19;100.00
33625;BME280;19962;47.820;1.930;2023-11-19T09:25:34;100775.75;;;16.23;100.00
33625;BME280;19962;47.820;1.930;2023-11-19T09:28:00;100776.31;;;16.25;100.00
33625;BME280;19962;47.820;1.930;2023-11-19T09:30:26;100785.72;;;16.24;100.00
33625;BME280;19962;47.820;1.930;2023-11-19T09:32:52;100776.38;;;16.30;100.00
33625;BME280;19962;47.820;1.930;2023-11-19T09:35:18;100777.50;;;16.34;100.00
33625;BME280;19962;47.820;1.930;2023-11-19T09:37:44;100772.56;;;16.36;100.00
33625;BME280;19962;47.820;1.930;2023-11-19T09:40:11;100768.22;;;16.40;100.00
33625;BME280;19962;47.820;1.930;2023-11-19T09:42:44;100769.25;;;16.39;100.00
33625;BME280;19962;47.820;1.930;2023-11-19T09:45:17;100771.84;;;16.45;100.00
33625;BME280;19962;47.820;1.930;2023-11-19T09:47:45;100775.53;;;16.56;100.00
33625;BME280;19962;47.820;1.930;2023-11-19T09:50:20;100770.03;;;16.61;100.00
33625;BME280;19962;47.820;1.930;2023-11-19T09:52:47;100766.19;;;16.62;100.00
33625;BME280;19962;47.820;1.930;2023-11-19T09:55:14;100771.13;;;16.60;100.00
33625;BME280;19962;47.820;1.930;2023-11-19T09:57:41;100772.53;;;16.62;100.00
33625;BME280;19962;47.820;1.930;2023-11-19T10:00:11;100771.97;;;16.60;99.97
33625;BME280;19962;47.820;1.930;2023-11-19T10:02:39;100769.47;;;16.59;99.81
33625;BME280;19962;47.820;1.930;2023-11-19T10:05:09;100766.41;;;16.55;99.50
33625;BME280;19962;47.820;1.930;2023-11-19T10:07:36;100758.94;;;16.61;99.39
33625;BME280;19962;47.820;1.930;2023-11-19T10:10:03;100774.50;;;16.62;98.46
33625;BME280;19962;47.820;1.930;2023-11-19T10:12:33;100781.13;;;16.61;98.12
33625;BME280;19962;47.820;1.930;2023-11-19T10:14:59;100780.59;;;16.64;97.77
33625;BME280;19962;47.820;1.930;2023-11-19T10:17:29;100786.69;;;16.66;96.27
33625;BME280;19962;47.820;1.930;2023-11-19T10:19:58;100780.88;;;16.67;96.18
33625;BME280;19962;47.820;1.930;2023-11-19T10:22:25;100785.66;;;16.72;95.45
33625;BME280;19962;47.820;1.930;2023-11-19T10:24:52;100791.00;;;16.83;94.62
33625;BME280;19962;47.820;1.930;2023-11-19T10:27:18;100787.19;;;16.94;93.40
33625;BME280;19962;47.820;1.930;2023-11-19T10:29:48;100783.72;;;17.09;92.72
33625;BME280;19962;47.820;1.930;2023-11-19T10:32:14;100792.03;;;17.09;91.91
33625;BME280;19962;47.820;1.930;2023-11-19T10:34:41;100785.56;;;16.98;91.47
33625;BME280;19962;47.820;1.930;2023-11-19T10:37:08;100789.47;;;17.02;91.87
33625;BME280;19962;47.820;1.930;2023-11-19T10:39:53;100789.47;;;17.02;89.80
33625;BME280;19962;47.820;1.930;2023-11-19T10:42:23;100779.25;;;17.03;91.30
33625;BME280;19962;47.820;1.930;2023-11-19T10:44:49;100777.34;;;17.08;91.11
33625;BME280;19962;47.820;1.930;2023-11-19T10:47:16;100773.38;;;16.99;91.14
33625;BME280;19962;47.820;1.930;2023-11-19T10:49:45;100772.25;;;16.95;91.69
33625;BME280;19962;47.820;1.930;2023-11-19T10:52:20;100760.34;;;16.95;90.89
33625;BME280;19962;47.820;1.930;2023-11-19T10:54:50;100765.34;;;16.98;90.11
33625;BME280;19962;47.820;1.930;2023-11-19T10:57:21;100766.28;;;17.13;90.43
33625;BME280;19962;47.820;1.930;2023-11-19T10:59:53;100762.13;;;17.16;89.24
33625;BME280;19962;47.820;1.930;2023-11-19T11:02:23;100745.56;;;17.26;89.48
33625;BME280;19962;47.820;1.930;2023-11-19T11:04:50;100747.78;;;17.24;88.86
33625;BME280;19962;47.820;1.930;2023-11-19T11:07:21;100763.22;;;17.15;88.29
33625;BME280;19962;47.820;1.930;2023-11-19T11:09:48;100757.66;;;17.10;88.24
33625;BME280;19962;47.820;1.930;2023-11-19T11:12:15;100762.63;;;17.08;88.18
33625;BME280;19962;47.820;1.930;2023-11-19T11:14:45;100750.38;;;16.99;88.44
33625;BME280;19962;47.820;1.930;2023-11-19T11:17:13;100754.53;;;16.96;88.36
33625;BME280;19962;47.820;1.930;2023-11-19T11:19:42;100754.56;;;17.01;87.87
33625;BME280;19962;47.820;1.930;2023-11-19T11:22:09;100756.19;;;16.97;87.80
33625;BME280;19962;47.820;1.930;2023-11-19T11:24:53;100762.06;;;17.06;87.50
33625;BME280;19962;47.820;1.930;2023-11-19T11:27:49;100754.03;;;17.04;87.00
33625;BME280;19962;47.820;1.930;2023-11-19T11:30:20;100752.56;;;16.97;87.19
33625;BME280;19962;47.820;1.930;2023-11-19T11:32:52;100754.16;;;16.88;87.96
33625;BME280;19962;47.820;1.930;2023-11-19T11:35:46;100754.41;;;16.81;88.32
33625;BME280;19962;47.820;1.930;2023-11-19T11:38:16;100749.41;;;16.78;88.08
33625;BME280;19962;47.820;1.930;2023-11-19T11:41:17;100749.16;;;16.80;86.76
33625;BME280;19962;47.820;1.930;2023-11-19T11:43:49;100753.09;;;16.89;87.21
33625;BME280;19962;47.820;1.930;2023-11-19T11:49:03;100740.44;;;17.03;86.41
33625;BME280;19962;47.820;1.930;2023-11-19T11:59:37;100748.13;;;16.96;85.67
33625;BME280;19962;47.820;1.930;2023-11-19T12:02:04;100751.94;;;16.85;85.88
33625;BME280;19962;47.820;1.930;2023-11-19T12:04:35;100738.69;;;16.92;85.41
33625;BME280;19962;47.820;1.930;2023-11-19T12:09:32;100719.19;;;16.77;85.37
33625;BME280;19962;47.820;1.930;2023-11-19T12:12:27;100722.97;;;16.66;84.84
33625;BME280;19962;47.820;1.930;2023-11-19T12:15:09;100716.81;;;16.54;84.87
33625;BME280;19962;47.820;1.930;2023-11-19T12:17:50;100714.78;;;16.44;84.54
33625;BME280;19962;47.820;1.930;2023-11-19T12:20:17;100715.03;;;16.43;85.57
33625;BME280;19962;47.820;1.930;2023-11-19T12:22:45;100716.16;;;16.42;85.83
33625;BME280;19962;47.820;1.930;2023-11-19T12:25:12;100711.75;;;16.46;86.04
33625;BME280;19962;47.820;1.930;2023-11-19T12:30:12;100683.00;;;16.52;85.05
33625;BME280;19962;47.820;1.930;2023-11-19T12:32:44;100689.66;;;16.56;84.89
33625;BME280;19962;47.820;1.930;2023-11-19T12:35:11;100693.59;;;16.60;84.38
33625;BME280;19962;47.820;1.930;2023-11-19T12:37:51;100690.56;;;16.61;82.81
33625;BME280;19962;47.820;1.930;2023-11-19T12:40:23;100683.38;;;16.65;83.79
33625;BME280;19962;47.820;1.930;2023-11-19T12:42:51;100689.22;;;16.69;83.09
33625;BME280;19962;47.820;1.930;2023-11-19T12:45:18;100680.41;;;16.77;82.83
33625;BME280;19962;47.820;1.930;2023-11-19T12:47:46;100677.66;;;16.82;82.47
33625;BME280;19962;47.820;1.930;2023-11-19T12:50:14;100684.34;;;16.86;81.89
33625;BME280;19962;47.820;1.930;2023-11-19T12:52:41;100678.56;;;16.92;81.77
33625;BME280;19962;47.820;1.930;2023-11-19T12:55:28;100681.91;;;16.99;80.42
33625;BME280;19962;47.820;1.930;2023-11-19T12:57:56;100689.44;;;17.04;80.96
33625;BME280;19962;47.820;1.930;2023-11-19T13:00:24;100693.88;;;17.05;80.54
33625;BME280;19962;47.820;1.930;2023-11-19T13:02:56;100686.13;;;17.07;80.23